createdAt,value
2022-12-11T00:01:18.342Z,156057.78
2022-12-11T00:03:48.242Z,156035.28
2022-12-11T00:06:20.858Z,156059.09
2022-12-11T00:08:52.471Z,156055.09
2022-12-11T00:11:22.189Z,156047.19
2022-12-11T00:13:50.105Z,156048.50
2022-12-11T00:16:20.370Z,156041.88
2022-12-11T00:18:52.465Z,156041.88
2022-12-11T00:21:20.715Z,156055.09
2022-12-11T00:23:48.548Z,156026.03
2022-12-11T00:26:17.280Z,156032.66
2022-12-11T00:28:45.962Z,156052.47
2022-12-11T00:31:19.171Z,156032.66
2022-12-11T00:33:50.433Z,156048.50
2022-12-11T00:36:21.832Z,156035.28
2022-12-11T00:38:50.399Z,156068.34
2022-12-11T00:41:18.634Z,156077.56
2022-12-11T00:43:47.115Z,156049.81
2022-12-11T00:46:15.595Z,156035.28
2022-12-11T00:48:43.668Z,156031.34
2022-12-11T00:51:12.081Z,156039.25
2022-12-11T00:53:40.769Z,156035.28
2022-12-11T00:56:18.430Z,156023.41
2022-12-11T00:58:47.341Z,156048.50
2022-12-11T01:01:19.026Z,156069.66
2022-12-11T01:03:47.375Z,156068.34
2022-12-11T01:06:18.247Z,156037.94
2022-12-11T01:08:46.818Z,156033.97
2022-12-11T01:11:17.038Z,156036.63
2022-12-11T01:13:45.242Z,156020.75
2022-12-11T01:16:15.321Z,156004.88
2022-12-11T01:18:44.592Z,156041.88
2022-12-11T01:21:14.390Z,156019.41
2022-12-11T01:23:42.284Z,156014.13
2022-12-11T01:26:14.914Z,156016.81
2022-12-11T01:28:43.382Z,155999.59
2022-12-11T01:31:14.000Z,155978.44
2022-12-11T01:33:42.719Z,155990.34
2022-12-11T01:36:19.368Z,155978.44
2022-12-11T01:38:48.945Z,155983.75
2022-12-11T01:41:18.926Z,155978.44
2022-12-11T01:44:15.725Z,156008.88
2022-12-11T01:46:44.172Z,155990.34
2022-12-11T01:49:13.601Z,155975.81
2022-12-11T01:52:00.046Z,155989.03
2022-12-11T01:54:28.810Z,155983.75
2022-12-11T01:57:03.053Z,155982.44
2022-12-11T01:59:32.304Z,155974.50
2022-12-11T02:02:18.076Z,155965.22
2022-12-11T02:04:46.877Z,155958.59
2022-12-11T02:07:15.738Z,155966.56
2022-12-11T02:09:45.780Z,155983.75
2022-12-11T02:12:57.295Z,155973.19
2022-12-11T02:15:31.133Z,155961.28
2022-12-11T02:18:21.514Z,155952.00
2022-12-11T02:20:56.135Z,155944.06
2022-12-11T02:23:44.690Z,155928.22
2022-12-11T02:26:12.518Z,155925.59
2022-12-11T02:28:51.329Z,155922.94
2022-12-11T02:31:37.641Z,155928.22
2022-12-11T02:34:43.726Z,155924.28
2022-12-11T02:37:17.412Z,155907.09
2022-12-11T02:39:46.482Z,155926.91
2022-12-11T02:42:16.800Z,155913.69
2022-12-11T02:44:45.473Z,155911.06
2022-12-11T02:47:14.415Z,155901.78
2022-12-11T02:49:44.853Z,155907.09
2022-12-11T02:52:13.868Z,155907.09
2022-12-11T02:54:43.534Z,155941.44
2022-12-11T02:57:19.218Z,155896.53
2022-12-11T02:59:47.762Z,155897.84
2022-12-11T03:02:16.776Z,155888.56
2022-12-11T03:04:48.068Z,155884.63
2022-12-11T03:07:20.118Z,155881.97
2022-12-11T03:09:48.665Z,155880.66
2022-12-11T03:12:22.156Z,155874.03
2022-12-11T03:14:51.693Z,155867.44
2022-12-11T03:17:23.306Z,155875.34
2022-12-11T03:20:17.929Z,155876.72
2022-12-11T03:23:24.870Z,155866.13
2022-12-11T03:26:08.355Z,155874.03
2022-12-11T03:28:45.044Z,155839.69
2022-12-11T03:31:19.088Z,155858.19
2022-12-11T03:33:48.790Z,155875.34
2022-12-11T03:36:24.499Z,155871.41
2022-12-11T03:38:56.795Z,155880.66
2022-12-11T03:41:27.306Z,155885.94
2022-12-11T03:43:58.904Z,155881.97
2022-12-11T03:46:32.700Z,155883.31
2022-12-11T03:49:06.301Z,155878.03
2022-12-11T03:51:34.898Z,155872.72
2022-12-11T03:54:03.020Z,155872.72
2022-12-11T03:56:33.454Z,155859.50
2022-12-11T03:59:01.059Z,155866.13
2022-12-11T04:01:29.149Z,155875.34
2022-12-11T04:03:57.479Z,155858.19
2022-12-11T04:06:26.101Z,155855.56
2022-12-11T04:08:54.048Z,155875.34
2022-12-11T04:11:34.968Z,155875.34
2022-12-11T04:14:29.358Z,155852.91
2022-12-11T04:16:59.046Z,155859.50
2022-12-11T04:19:45.539Z,155852.91
2022-12-11T04:22:33.911Z,155830.44
2022-12-11T04:25:02.572Z,155842.34
2022-12-11T04:27:48.963Z,155814.63
2022-12-11T04:30:20.655Z,155848.97
2022-12-11T04:32:49.263Z,155818.56
2022-12-11T04:35:17.182Z,155835.75
2022-12-11T04:37:45.857Z,155825.16
2022-12-11T04:40:16.440Z,155805.34
2022-12-11T04:42:45.074Z,155809.31
2022-12-11T04:45:13.852Z,155801.41
2022-12-11T04:47:42.631Z,155792.16
2022-12-11T04:50:12.340Z,155780.25
2022-12-11T04:52:40.814Z,155778.97
2022-12-11T04:55:09.710Z,155778.97
2022-12-11T04:57:38.189Z,155748.53
2022-12-11T05:00:08.068Z,155735.34
2022-12-11T05:02:37.768Z,155744.59
2022-12-11T05:05:10.322Z,155739.31
2022-12-11T05:07:39.002Z,155757.81
2022-12-11T05:10:07.612Z,155772.34
2022-12-11T05:12:36.238Z,155763.06
2022-12-11T05:15:04.888Z,155753.84
2022-12-11T05:17:33.922Z,155743.31
2022-12-11T05:20:01.739Z,155740.63
2022-12-11T05:22:32.080Z,155745.91
2022-12-11T05:24:59.818Z,155748.53
2022-12-11T05:27:28.162Z,155731.41
2022-12-11T05:29:59.366Z,155748.53
2022-12-11T08:43:34.994Z,155499.00
2022-12-11T08:46:03.276Z,155489.78
2022-12-11T08:48:31.610Z,155497.69
2022-12-11T08:51:02.106Z,155509.59
2022-12-11T08:53:30.853Z,155503.00
2022-12-11T08:56:13.466Z,155500.38
2022-12-11T08:58:41.814Z,155508.28
2022-12-11T09:01:12.796Z,155508.28
2022-12-11T09:03:41.176Z,155526.72
2022-12-11T09:06:15.055Z,155521.50
2022-12-11T09:08:51.666Z,155518.81
2022-12-11T09:11:26.298Z,155516.19
2022-12-11T09:13:54.941Z,155520.19
2022-12-11T09:16:25.554Z,155517.50
2022-12-11T09:18:55.441Z,155538.63
2022-12-11T09:21:26.094Z,155530.72
2022-12-11T09:23:55.891Z,155542.59
2022-12-11T09:26:24.672Z,155530.72
2022-12-11T09:28:53.906Z,155537.31
2022-12-11T09:31:30.850Z,155549.19
2022-12-11T09:34:01.186Z,155554.44
2022-12-11T09:36:30.104Z,155543.91
2022-12-11T09:39:02.581Z,155578.25
2022-12-11T09:42:11.804Z,155545.22
2022-12-11T09:44:50.903Z,155554.44
2022-12-11T09:47:36.424Z,155541.28
2022-12-11T09:50:19.104Z,155545.22
2022-12-11T09:52:47.246Z,155547.91
2022-12-11T09:55:24.444Z,155534.69
2022-12-11T09:58:23.774Z,155538.63
2022-12-11T10:01:07.049Z,155539.94
2022-12-11T10:03:44.906Z,155558.44
2022-12-11T10:06:22.218Z,155566.34
2022-12-11T10:09:11.650Z,155553.13
2022-12-11T10:12:30.653Z,155557.13
2022-12-11T10:15:11.176Z,155562.41
2022-12-11T10:17:40.268Z,155534.69
2022-12-11T10:20:17.449Z,155566.34
2022-12-11T10:22:46.828Z,155570.31
2022-12-11T10:25:25.779Z,155576.94
2022-12-11T10:27:54.071Z,155579.56
2022-12-11T10:30:24.720Z,155595.38
2022-12-11T10:33:17.242Z,155591.44
2022-12-11T10:35:54.262Z,155584.84
2022-12-11T10:38:31.323Z,155587.47
2022-12-11T10:41:02.307Z,155571.63
2022-12-11T10:43:46.480Z,155558.44
2022-12-11T10:46:18.231Z,155569.00
2022-12-11T10:48:53.734Z,155570.31
2022-12-11T10:51:24.667Z,155553.13
2022-12-11T10:53:54.442Z,155562.41
2022-12-11T10:56:28.876Z,155575.56
2022-12-11T10:58:58.478Z,155572.94
2022-12-11T11:01:30.032Z,155596.72
2022-12-11T11:04:20.390Z,155596.72
2022-12-11T11:06:49.970Z,155588.78
2022-12-11T11:09:43.587Z,155591.44
2022-12-11T11:12:24.825Z,155588.78
2022-12-11T11:15:08.527Z,155588.78
2022-12-11T11:17:54.228Z,155590.13
2022-12-11T11:20:29.699Z,155579.56
2022-12-11T11:23:01.451Z,155588.78
2022-12-11T11:25:31.962Z,155592.75
2022-12-11T11:28:05.915Z,155601.97
2022-12-11T11:30:42.170Z,155599.34
2022-12-11T11:33:18.986Z,155611.25
2022-12-11T11:35:56.340Z,155628.41
2022-12-11T11:38:38.075Z,155644.22
2022-12-11T11:41:24.413Z,155642.91
2022-12-11T11:43:56.072Z,155629.69
2022-12-11T11:46:32.635Z,155642.91
2022-12-11T11:49:11.226Z,155657.44
2022-12-11T11:51:40.396Z,155635.00
2022-12-11T11:54:36.058Z,155631.00
2022-12-11T11:57:14.650Z,155611.25
2022-12-11T11:59:52.757Z,155624.41
2022-12-11T12:02:20.948Z,155629.69
2022-12-11T12:04:53.490Z,155646.91
2022-12-11T12:07:42.975Z,155633.69
2022-12-11T12:10:19.717Z,155612.56
2022-12-11T12:13:23.887Z,155596.72
2022-12-11T12:15:59.448Z,155594.06
2022-12-11T12:18:52.469Z,155599.34
2022-12-11T12:21:32.411Z,155572.94
2022-12-11T12:24:29.419Z,155566.34
2022-12-11T12:27:50.595Z,155546.53
2022-12-11T12:30:16.123Z,155526.72
2022-12-11T12:33:08.012Z,155522.81
2022-12-11T12:35:38.283Z,155513.56
2022-12-11T12:38:48.181Z,155493.78
2022-12-11T12:41:34.275Z,155489.78
2022-12-11T12:44:22.181Z,155499.00
2022-12-11T12:47:10.133Z,155495.09
2022-12-11T12:49:41.306Z,155500.38
2022-12-11T12:52:24.714Z,155505.63
2022-12-11T12:55:15.250Z,155513.56
2022-12-11T12:57:47.727Z,155516.19
2022-12-11T13:00:37.646Z,155501.69
2022-12-11T13:03:32.789Z,155497.69
2022-12-11T13:06:09.900Z,155492.47
2022-12-11T13:08:50.979Z,155491.09
2022-12-11T13:11:21.333Z,155485.88
2022-12-11T13:14:10.672Z,155476.59
2022-12-11T13:16:44.420Z,155472.66
2022-12-11T13:19:31.076Z,155468.69
2022-12-11T13:22:15.127Z,155470.00
2022-12-11T13:24:56.009Z,155467.38
2022-12-11T13:27:26.996Z,155467.38
2022-12-11T13:30:16.404Z,155488.47
2022-12-11T13:33:09.424Z,155496.41
2022-12-11T13:35:37.697Z,155481.88
2022-12-11T13:38:18.127Z,155464.75
2022-12-11T13:40:53.746Z,155455.47
2022-12-11T13:43:30.528Z,155440.97
2022-12-11T13:46:03.061Z,155440.97
2022-12-11T13:48:38.762Z,155446.25
2022-12-11T13:51:07.003Z,155446.25
2022-12-11T13:53:35.387Z,155456.78
2022-12-11T13:56:06.356Z,155439.66
2022-12-11T13:58:38.507Z,155440.97
2022-12-11T14:01:18.006Z,155450.19
2022-12-11T14:03:56.848Z,155439.66
2022-12-11T14:06:26.131Z,155431.75
2022-12-11T14:08:56.576Z,155440.97
2022-12-11T14:11:29.826Z,155444.94
2022-12-11T14:14:00.438Z,155447.56
2022-12-11T14:16:29.209Z,155450.19
2022-12-11T14:19:04.504Z,155427.78
2022-12-11T14:21:32.395Z,155443.63
2022-12-11T14:24:06.820Z,155444.94
2022-12-11T14:26:38.716Z,155454.16
2022-12-11T14:29:07.357Z,155437.03
2022-12-11T14:31:42.102Z,155446.25
2022-12-11T14:34:18.497Z,155444.94
2022-12-11T14:36:47.278Z,155443.63
2022-12-11T14:39:23.060Z,155433.06
2022-12-11T14:41:54.404Z,155427.78
2022-12-11T14:44:24.766Z,155430.44
2022-12-11T14:46:58.051Z,155434.38
2022-12-11T14:49:48.308Z,155415.94
2022-12-11T14:52:20.235Z,155414.56
2022-12-11T14:54:53.765Z,155413.25
2022-12-11T14:57:27.305Z,155413.25
2022-12-11T14:59:57.031Z,155415.94
2022-12-11T15:02:28.379Z,155410.66
2022-12-11T15:05:20.283Z,155414.56
2022-12-11T15:07:56.899Z,155413.25
2022-12-11T15:10:57.534Z,155405.34
2022-12-11T15:13:25.363Z,155402.72
2022-12-11T15:15:55.441Z,155398.75
2022-12-11T15:18:31.431Z,155405.34
2022-12-11T15:21:09.919Z,155405.34
2022-12-11T15:23:58.600Z,155409.34
2022-12-11T15:26:38.157Z,155417.25
2022-12-11T15:29:23.387Z,155410.66
2022-12-11T15:32:14.164Z,155406.66
2022-12-11T15:34:50.409Z,155394.81
2022-12-11T15:37:27.456Z,155404.03
2022-12-11T15:39:57.740Z,155407.97
2022-12-11T15:42:39.249Z,155421.16
2022-12-11T15:45:11.866Z,155414.56
2022-12-11T15:47:40.495Z,155421.16
2022-12-11T15:50:16.370Z,155419.84
2022-12-11T15:52:45.763Z,155431.75
2022-12-11T15:55:14.501Z,155433.06
2022-12-11T15:57:48.285Z,155437.03
2022-12-11T16:00:18.901Z,155427.78
2022-12-11T16:02:47.567Z,155426.47
2022-12-11T16:05:16.739Z,155456.78
2022-12-11T16:07:45.520Z,155450.19
2022-12-11T16:10:17.501Z,155437.03
2022-12-11T16:12:46.227Z,155421.16
2022-12-11T16:15:22.880Z,155434.38
2022-12-11T16:18:03.341Z,155425.16
2022-12-11T16:20:32.044Z,155439.66
2022-12-11T16:23:00.810Z,155430.44
2022-12-11T16:25:28.783Z,155430.44
2022-12-11T16:27:59.224Z,155426.47
2022-12-11T16:30:28.421Z,155430.44
2022-12-11T16:32:57.049Z,155429.06
2022-12-11T16:35:25.175Z,155438.34
2022-12-11T16:37:54.040Z,155438.34
2022-12-11T16:40:23.584Z,155442.28
2022-12-11T16:42:52.407Z,155448.88
2022-12-11T16:45:22.989Z,155448.88
2022-12-11T16:47:51.259Z,155454.16
2022-12-11T16:50:19.783Z,155450.19
2022-12-11T16:52:48.433Z,155452.84
2022-12-11T16:55:16.408Z,155468.69
2022-12-11T16:57:44.742Z,155463.38
2022-12-11T17:00:13.343Z,155463.38
2022-12-11T17:02:41.860Z,155470.00
2022-12-11T17:05:10.441Z,155448.88
2022-12-11T17:07:41.469Z,155466.06
2022-12-11T17:10:10.361Z,155459.47
2022-12-11T17:12:39.244Z,155472.66
2022-12-11T17:15:07.917Z,155458.16
2022-12-11T17:17:36.513Z,155462.06
2022-12-11T17:20:05.279Z,155464.75
2022-12-11T17:22:33.933Z,155462.06
2022-12-11T17:25:01.901Z,155468.69
2022-12-11T17:27:30.632Z,155459.47
2022-12-11T17:29:58.934Z,155446.25
2022-12-11T17:32:27.071Z,155435.69
2022-12-11T17:34:55.410Z,155451.56
2022-12-11T17:37:23.835Z,155446.25
2022-12-11T17:39:52.133Z,155444.94
2022-12-11T17:42:20.535Z,155435.69
2022-12-11T17:44:48.281Z,155437.03
2022-12-11T17:47:16.187Z,155442.28
2022-12-11T17:49:44.254Z,155434.38
2022-12-11T17:52:12.907Z,155404.03
2022-12-11T17:54:40.841Z,155435.69
2022-12-11T17:57:09.391Z,155427.78
2022-12-11T17:59:37.265Z,155411.94
2022-12-11T18:02:05.192Z,155439.66
2022-12-11T18:04:33.258Z,155439.66
2022-12-11T18:07:01.510Z,155443.63
2022-12-11T18:09:30.718Z,155442.28
2022-12-11T18:11:59.807Z,155434.38
2022-12-11T18:14:28.581Z,155446.25
2022-12-11T18:16:56.575Z,155452.84
2022-12-11T18:19:25.745Z,155440.97
2022-12-11T18:21:55.080Z,155438.34
2022-12-11T18:24:26.371Z,155447.56
2022-12-11T18:26:55.014Z,155442.28
2022-12-11T18:29:22.928Z,155466.06
2022-12-11T18:31:51.659Z,155456.78
2022-12-11T18:34:19.560Z,155448.88
2022-12-11T18:36:48.080Z,155444.94
2022-12-11T18:39:16.088Z,155446.25
2022-12-11T18:41:50.215Z,155434.38
2022-12-11T18:44:26.188Z,155437.03
2022-12-11T18:46:54.748Z,155434.38
2022-12-11T18:49:23.366Z,155448.88
2022-12-11T18:51:51.214Z,155444.94
2022-12-11T18:54:19.317Z,155447.56
2022-12-11T18:56:47.512Z,155450.19
2022-12-11T18:59:15.502Z,155450.19
2022-12-11T19:01:44.105Z,155448.88
2022-12-11T19:04:12.191Z,155450.19
2022-12-11T19:06:40.547Z,155455.47
2022-12-11T19:09:09.188Z,155426.47
2022-12-11T19:11:40.646Z,155440.97
2022-12-11T19:14:10.024Z,155427.78
2022-12-11T19:16:42.045Z,155434.38
2022-12-11T19:19:14.499Z,155444.94
2022-12-11T19:21:43.367Z,155437.03
2022-12-11T19:24:15.117Z,155426.47
2022-12-11T19:26:44.801Z,155409.34
2022-12-11T19:29:21.150Z,155414.56
2022-12-11T19:31:49.621Z,155413.25
2022-12-11T19:34:18.036Z,155425.16
2022-12-11T19:36:46.516Z,155426.47
2022-12-11T19:39:15.154Z,155425.16
2022-12-11T19:41:43.845Z,155431.75
2022-12-11T19:44:12.537Z,155425.16
2022-12-11T19:46:41.109Z,155414.56
2022-12-11T19:49:11.624Z,155404.03
2022-12-11T19:51:41.463Z,155415.94
2022-12-11T19:54:13.251Z,155414.56
2022-12-11T19:56:41.788Z,155418.56
2022-12-11T19:59:14.415Z,155410.66
2022-12-11T20:01:44.240Z,155402.72
2022-12-11T20:04:14.837Z,155409.34
2022-12-11T20:06:45.393Z,155394.81
2022-12-11T20:09:15.098Z,155425.16
2022-12-11T20:11:45.481Z,155425.16
2022-12-11T20:14:23.683Z,155442.28
2022-12-11T20:17:10.998Z,155429.06
2022-12-11T20:19:42.783Z,155442.28
2022-12-11T20:22:11.681Z,155429.06
2022-12-11T20:24:40.029Z,155421.16
2022-12-11T20:27:10.457Z,155405.34
2022-12-11T20:29:39.232Z,155422.53
2022-12-11T20:32:07.836Z,155414.56
2022-12-11T20:34:36.071Z,155409.34
2022-12-11T20:37:04.344Z,155410.66
2022-12-11T20:39:32.699Z,155396.13
2022-12-11T20:42:05.341Z,155400.06
2022-12-11T20:44:33.485Z,155418.56
2022-12-11T20:47:02.459Z,155419.84
2022-12-11T20:49:30.661Z,155417.25
2022-12-11T20:52:00.243Z,155414.56
2022-12-11T20:54:28.140Z,155423.84
2022-12-11T20:56:57.159Z,155418.56
2022-12-11T20:59:26.406Z,155431.75
2022-12-11T21:01:55.987Z,155423.84
2022-12-11T21:04:24.562Z,155433.06
2022-12-11T21:06:55.590Z,155442.28
2022-12-11T21:09:26.857Z,155431.75
2022-12-11T21:11:58.463Z,155434.38
2022-12-11T21:14:26.500Z,155426.47
2022-12-11T21:16:55.603Z,155444.94
2022-12-11T21:19:24.170Z,155437.03
2022-12-11T21:21:52.943Z,155468.69
2022-12-11T21:24:26.556Z,155463.38
2022-12-11T21:26:57.978Z,155443.63
2022-12-11T21:29:27.455Z,155450.19
2022-12-11T21:31:56.305Z,155454.16
2022-12-11T21:34:25.778Z,155458.16
2022-12-11T21:36:57.200Z,155443.63
2022-12-11T21:39:26.820Z,155452.84
2022-12-11T21:41:55.364Z,155450.19
2022-12-11T21:47:11.428Z,155471.34
2022-12-11T21:49:39.221Z,155471.34
2022-12-11T21:52:08.864Z,155471.34
2022-12-11T21:54:39.180Z,155472.66
2022-12-11T21:57:06.900Z,155462.06
2022-12-11T21:59:36.464Z,155460.78
2022-12-11T22:02:04.770Z,155470.00
2022-12-11T22:04:34.040Z,155472.66
2022-12-11T22:07:01.742Z,155473.97
2022-12-11T22:09:30.208Z,155480.56
2022-12-11T22:11:59.018Z,155471.34
2022-12-11T22:14:27.620Z,155473.97
2022-12-11T22:16:55.793Z,155481.88
2022-12-11T22:19:29.092Z,155462.06
2022-12-11T22:21:59.989Z,155456.78
2022-12-11T22:24:30.253Z,155480.56
2022-12-11T22:26:59.990Z,155476.59
2022-12-11T22:29:28.629Z,155468.69
2022-12-11T22:31:56.846Z,155468.69
2022-12-11T22:34:25.140Z,155468.69
2022-12-11T22:36:53.250Z,155473.97
2022-12-11T22:39:21.546Z,155472.66
2022-12-11T22:41:49.588Z,155456.78
2022-12-11T22:44:20.217Z,155480.56
2022-12-11T22:46:50.686Z,155472.66
2022-12-11T22:49:20.603Z,155477.91
2022-12-11T22:51:50.033Z,155483.19
2022-12-11T22:54:18.298Z,155476.59
2022-12-11T22:56:46.265Z,155473.97
2022-12-11T22:59:14.248Z,155483.19
2022-12-11T23:01:42.554Z,155484.50
2022-12-11T23:04:11.198Z,155470.00
2022-12-11T23:06:39.140Z,155472.66
2022-12-11T23:09:07.787Z,155480.56
2022-12-11T23:11:38.030Z,155466.06
2022-12-11T23:14:08.555Z,155459.47
2022-12-11T23:16:37.256Z,155458.16
2022-12-11T23:19:05.546Z,155464.75
2022-12-11T23:21:34.125Z,155467.38
2022-12-11T23:24:02.419Z,155473.97
2022-12-11T23:26:31.074Z,155456.78
2022-12-11T23:28:59.709Z,155487.16
2022-12-11T23:31:28.368Z,155497.69
2022-12-11T23:33:57.193Z,155493.78
2022-12-11T23:36:26.609Z,155503.00
2022-12-11T23:38:55.685Z,155492.47
2022-12-11T23:41:24.106Z,155505.63
2022-12-11T23:43:52.659Z,155501.69
2022-12-11T23:46:23.184Z,155492.47
2022-12-11T23:48:52.674Z,155480.56
2022-12-11T23:51:23.216Z,155487.16
2022-12-11T23:53:52.383Z,155472.66
2022-12-11T23:56:26.033Z,155473.97
2022-12-11T23:58:55.629Z,155463.38
